Strona główna
METAR-TAF:

METAR-TAF

Lotnisko :

Port lotniczy Marka

Amman, Jordania

Szerokość geograficzna: 31-59N, Długość geograficzna: 035-59E, wysokość: 767 m

Aktualna obserwacja pogody

Raport powstał 53 minut temu, godzina 09:00 UTC
Wiatr 4 kt od wschód
Temperatura 13°C
Wilgotność 58%
Ciśnienie 1018 hPa
Widzialność: 5000 m
zmętnienie

METAR: OJAM 230900Z 08004KT 5000 HZ NSC 13/05 Q1018 NOSIG

czas: 11:53 (09:53 UTC)

Prognoza

Raport powstał 4 godziny i 52 minut temu, godzina 05:01 UTC
Prognoza ważna od 23 godzina 06 UTC do 24 godzina 12 UTC
Wiatr 2 kt z kierunków zmiennych
Widzialność: 2000 m
zamglenie
Stopniowe zmiany
od 23 godzina 06 UTC do 23 godzina 08 UTC
Wiatr 10 kt od południowy wschód
Widzialność: 5000 m
zmętnienie
Prawdopodobieństwo 30%
od 23 godzina 12 UTC do 23 godzina 24 UTC
Widzialność: 3000 m
pył

TAF: OJAM 230501Z 2306/2412 VRB02KT 2000 BR NSC BECMG 2306/2308 13010KT 5000 HZ PROB30 2312/2324 3000 DU

Obserwacja i prognoza pogody dla ponad 4000 lotnisk (raport METAR i TAF).

Dostępne stacje oznaczono żółtymi i czerwonymi punktami na mapie.

Najedź kursorem aby zobaczyć nazwę stacji.

Kliknij aby zobaczyć obserwacje i prognozy pogody.

Aby zmienić mapę: kliknij na zielony przycisk z czarnym krzyżykiem, aby powiększyć; na zielony przycisk z myślnikiem, aby pomniejszyć; na zielone strzałki, aby przejść do map sąsiednich.


METAR-TAF: